createdAt,value
2018-07-11T00:00:21.533Z,5.20
2018-07-11T00:02:49.805Z,7.60
2018-07-11T00:05:18.090Z,7.70
2018-07-11T00:07:46.351Z,7.83
2018-07-11T00:10:14.545Z,6.47
2018-07-11T00:12:42.811Z,5.17
2018-07-11T00:15:11.067Z,7.50
2018-07-11T00:17:39.331Z,5.37
2018-07-11T00:20:07.607Z,4.47
2018-07-11T00:22:35.923Z,10.27
2018-07-11T00:25:04.203Z,7.33
2018-07-11T00:27:32.450Z,11.07
2018-07-11T00:30:00.707Z,6.13
2018-07-11T00:32:28.993Z,6.10
2018-07-11T00:34:57.285Z,5.70
2018-07-11T00:37:25.574Z,9.63
2018-07-11T00:39:53.772Z,8.83
2018-07-11T00:42:22.059Z,5.07
2018-07-11T00:44:50.259Z,6.40
2018-07-11T00:47:18.548Z,4.70
2018-07-11T00:49:47.778Z,9.43
2018-07-11T00:52:16.061Z,8.90
2018-07-11T00:54:44.300Z,13.23
2018-07-11T00:57:12.684Z,10.03
2018-07-11T00:59:42.010Z,6.30
2018-07-11T01:02:10.204Z,8.10
2018-07-11T01:04:38.514Z,5.90
2018-07-11T01:07:07.499Z,6.13
2018-07-11T01:09:51.221Z,7.70
2018-07-11T01:12:19.844Z,8.40
2018-07-11T01:14:48.232Z,6.13
2018-07-11T01:17:21.750Z,6.83
2018-07-11T01:19:50.108Z,8.90
2018-07-11T01:22:18.372Z,14.70
2018-07-11T01:24:46.615Z,9.73
2018-07-11T01:27:14.906Z,12.77
2018-07-11T01:29:43.116Z,10.77
2018-07-11T01:32:11.397Z,13.47
2018-07-11T01:34:39.572Z,10.20
2018-07-11T01:37:07.948Z,12.53
2018-07-11T01:39:36.190Z,11.47
2018-07-11T01:42:04.446Z,6.87
2018-07-11T01:44:32.718Z,9.83
2018-07-11T01:47:00.980Z,10.50
2018-07-11T01:49:29.521Z,11.00
2018-07-11T01:52:09.014Z,12.23
2018-07-11T01:54:37.318Z,6.00
2018-07-11T01:57:05.631Z,10.60
2018-07-11T01:59:36.137Z,9.57
2018-07-11T02:02:04.805Z,8.70
2018-07-11T02:04:35.196Z,10.17
2018-07-11T02:07:03.500Z,7.93
2018-07-11T02:09:31.909Z,12.10
2018-07-11T02:12:00.196Z,7.73
2018-07-11T02:14:28.396Z,7.40
2018-07-11T02:16:56.728Z,7.10
2018-07-11T02:19:25.004Z,8.37
2018-07-11T02:21:53.518Z,6.63
2018-07-11T02:24:23.048Z,8.27
2018-07-11T02:26:51.608Z,13.50
2018-07-11T02:29:20.066Z,11.90
2018-07-11T02:31:48.377Z,11.87
2018-07-11T02:34:16.355Z,9.47
2018-07-11T02:36:44.543Z,9.83
2018-07-11T02:39:12.800Z,9.17
2018-07-11T02:41:40.786Z,12.27
2018-07-11T02:44:09.061Z,7.67
2018-07-11T02:46:42.715Z,6.60
2018-07-11T02:49:11.002Z,8.60
2018-07-11T02:51:39.318Z,7.60
2018-07-11T02:54:07.608Z,8.03
2018-07-11T02:56:35.807Z,9.53
2018-07-11T02:59:04.082Z,10.00
2018-07-11T03:01:32.280Z,7.70
2018-07-11T03:04:00.537Z,10.70
2018-07-11T03:06:28.642Z,8.03
2018-07-11T03:08:56.870Z,8.20
2018-07-11T03:11:25.058Z,9.40
2018-07-11T03:13:53.742Z,5.93
2018-07-11T03:16:22.006Z,10.90
2018-07-11T03:18:50.274Z,7.47
2018-07-11T03:21:18.560Z,8.93
2018-07-11T03:23:46.766Z,9.90
2018-07-11T03:26:15.082Z,7.67
2018-07-11T03:28:43.298Z,6.83
2018-07-11T03:31:11.502Z,9.47
2018-07-11T03:33:39.719Z,12.97
2018-07-11T03:36:07.966Z,6.70
2018-07-11T03:38:36.380Z,8.00
2018-07-11T03:41:04.616Z,6.00
2018-07-11T03:43:32.911Z,7.50
2018-07-11T03:46:01.186Z,6.60
2018-07-11T03:48:29.452Z,4.93
2018-07-11T03:50:57.881Z,10.30
2018-07-11T03:53:25.996Z,10.50
2018-07-11T03:55:54.268Z,11.83
2018-07-11T03:58:22.542Z,9.27
2018-07-11T04:00:50.742Z,5.33
2018-07-11T04:03:18.924Z,7.97
2018-07-11T04:05:47.236Z,9.80
2018-07-11T04:08:15.521Z,7.90
2018-07-11T04:10:43.793Z,7.60
2018-07-11T04:13:16.545Z,5.57
2018-07-11T04:15:44.812Z,8.80
2018-07-11T04:18:25.585Z,7.73
2018-07-11T04:20:53.936Z,6.90
2018-07-11T04:23:21.926Z,12.50
2018-07-11T04:25:50.282Z,8.03
2018-07-11T04:28:18.478Z,6.83
2018-07-11T04:30:46.805Z,10.57
2018-07-11T04:33:15.227Z,6.13
2018-07-11T04:35:43.436Z,7.97
2018-07-11T04:38:11.658Z,6.53
2018-07-11T04:40:39.937Z,7.00
2018-07-11T04:43:08.248Z,8.13
2018-07-11T04:45:36.744Z,10.90
2018-07-11T04:48:06.442Z,10.53
2018-07-11T04:50:34.644Z,8.30
2018-07-11T04:53:05.135Z,7.87
2018-07-11T04:55:33.575Z,7.27
2018-07-11T04:58:01.762Z,7.87
2018-07-11T05:00:30.152Z,8.60
2018-07-11T05:02:58.501Z,7.27
2018-07-11T05:05:26.609Z,7.50
2018-07-11T05:07:55.089Z,6.00
2018-07-11T05:10:23.540Z,8.33
2018-07-11T05:12:51.965Z,7.63
2018-07-11T05:15:20.245Z,8.20
2018-07-11T05:17:48.477Z,7.67
2018-07-11T05:20:16.693Z,4.70
2018-07-11T05:22:44.887Z,10.87
2018-07-11T05:25:13.194Z,8.00
2018-07-11T05:27:41.450Z,9.10
2018-07-11T05:30:09.593Z,7.80
2018-07-11T05:32:37.595Z,7.30
2018-07-11T05:35:05.915Z,10.27
2018-07-11T05:37:34.190Z,7.00
2018-07-11T05:40:02.445Z,11.87
2018-07-11T05:42:30.696Z,5.83
2018-07-11T05:44:58.910Z,8.37
2018-07-11T05:47:27.147Z,9.20
2018-07-11T05:49:55.099Z,7.20
2018-07-11T05:52:23.284Z,9.60
2018-07-11T05:54:51.489Z,7.00
2018-07-11T05:57:19.740Z,10.53
2018-07-11T05:59:48.014Z,7.07
2018-07-11T06:02:16.196Z,8.33
2018-07-11T06:04:44.381Z,5.77
2018-07-11T06:07:12.890Z,7.50
2018-07-11T06:09:41.073Z,8.07
2018-07-11T06:12:09.277Z,8.10
2018-07-11T06:14:37.513Z,6.13
2018-07-11T06:17:05.801Z,7.13
2018-07-11T06:19:34.036Z,7.77
2018-07-11T06:22:02.229Z,6.77
2018-07-11T06:24:30.499Z,6.00
2018-07-11T06:26:58.685Z,6.20
2018-07-11T06:29:26.963Z,6.97
2018-07-11T06:31:55.267Z,6.10
2018-07-11T06:34:23.474Z,4.70
2018-07-11T06:36:51.841Z,5.13
2018-07-11T06:39:20.073Z,8.83
2018-07-11T06:41:48.357Z,6.83
2018-07-11T06:44:16.553Z,6.90
2018-07-11T06:46:44.768Z,6.90
2018-07-11T06:49:12.972Z,6.10
2018-07-11T06:51:41.219Z,7.27
2018-07-11T06:54:09.207Z,6.40
2018-07-11T06:56:37.400Z,5.47
2018-07-11T06:59:05.581Z,5.60
2018-07-11T07:01:33.865Z,7.17
2018-07-11T07:04:02.063Z,7.03
2018-07-11T07:06:30.280Z,11.13
2018-07-11T07:08:58.456Z,5.17
2018-07-11T07:11:26.662Z,5.10
2018-07-11T07:13:54.921Z,3.50
2018-07-11T07:16:22.983Z,4.80
2018-07-11T07:18:51.137Z,4.20
2018-07-11T07:21:19.366Z,3.67
2018-07-11T07:23:47.396Z,4.00
2018-07-11T07:26:15.594Z,4.47
2018-07-11T07:28:43.860Z,4.77
2018-07-11T07:31:12.060Z,3.93
2018-07-11T07:33:40.341Z,4.17
2018-07-11T07:36:08.626Z,3.93
2018-07-11T07:38:40.902Z,4.83
2018-07-11T07:41:09.520Z,3.57
2018-07-11T07:43:38.190Z,8.90
2018-07-11T07:46:06.747Z,6.30
2018-07-11T07:48:35.191Z,3.50
2018-07-11T07:51:03.385Z,3.30
2018-07-11T07:53:31.687Z,3.50
2018-07-11T07:55:59.888Z,3.53
2018-07-11T07:58:28.186Z,3.33
2018-07-11T08:00:56.818Z,2.57
2018-07-11T08:03:25.031Z,3.73
2018-07-11T08:05:53.294Z,3.20
2018-07-11T08:08:21.540Z,3.17
2018-07-11T08:10:49.770Z,2.77
2018-07-11T08:13:17.990Z,2.97
2018-07-11T08:15:46.274Z,2.80
2018-07-11T08:18:14.530Z,2.70
2018-07-11T08:20:42.730Z,2.97
2018-07-11T08:23:37.034Z,2.97
2018-07-11T08:26:16.568Z,2.70
2018-07-11T08:31:03.153Z,3.80
2018-07-11T08:33:42.910Z,3.17
2018-07-11T08:36:51.871Z,2.60
2018-07-11T08:40:08.892Z,3.63
2018-07-11T08:42:54.328Z,3.97
2018-07-11T08:45:32.942Z,3.90
2018-07-11T08:48:12.168Z,5.70
2018-07-11T08:52:58.842Z,8.13
2018-07-11T08:55:38.369Z,5.70
2018-07-11T09:00:21.686Z,8.07
2018-07-11T09:03:19.584Z,4.77
2018-07-11T09:05:59.999Z,6.80
2018-07-11T09:10:41.964Z,7.70
2018-07-11T09:14:27.069Z,4.70
2018-07-11T09:17:08.918Z,10.63
2018-07-11T09:19:48.608Z,7.83
2018-07-11T09:22:46.135Z,4.80
2018-07-11T09:25:14.342Z,4.57
2018-07-11T09:27:42.518Z,8.47
2018-07-11T09:30:10.720Z,5.60
2018-07-11T09:32:38.962Z,5.03
2018-07-11T09:35:07.237Z,3.50
2018-07-11T09:37:35.576Z,4.87
2018-07-11T09:40:03.736Z,8.77
2018-07-11T09:42:31.955Z,5.47
2018-07-11T09:45:00.162Z,4.40
2018-07-11T09:47:29.751Z,4.47
2018-07-11T09:49:58.061Z,3.30
2018-07-11T09:52:26.317Z,3.63
2018-07-11T09:54:54.546Z,4.03
2018-07-11T09:57:23.522Z,3.83
2018-07-11T09:59:51.781Z,4.57
2018-07-11T10:02:21.908Z,3.43
2018-07-11T10:04:50.510Z,4.97
2018-07-11T10:07:18.786Z,3.60
2018-07-11T10:09:47.078Z,4.33
2018-07-11T10:12:15.321Z,3.80
2018-07-11T10:14:43.529Z,5.63
2018-07-11T10:17:11.914Z,4.57
2018-07-11T10:19:40.116Z,5.63
2018-07-11T10:22:08.316Z,3.87
2018-07-11T10:24:36.528Z,4.30
2018-07-11T10:27:04.804Z,3.77
2018-07-11T10:29:33.013Z,8.60
2018-07-11T10:32:01.265Z,3.63
2018-07-11T10:34:29.510Z,3.43
2018-07-11T10:36:57.841Z,4.13
2018-07-11T10:39:26.085Z,3.90
2018-07-11T10:41:54.092Z,3.53
2018-07-11T10:44:22.357Z,3.07
2018-07-11T10:46:52.999Z,3.13
2018-07-11T10:49:21.286Z,4.40
2018-07-11T10:51:49.491Z,4.70
2018-07-11T10:54:17.751Z,3.73
2018-07-11T10:56:45.993Z,3.10
2018-07-11T10:59:14.223Z,3.03
2018-07-11T11:01:42.508Z,3.03
2018-07-11T11:04:10.833Z,4.00
2018-07-11T11:06:39.023Z,3.43
2018-07-11T11:09:07.355Z,5.33
2018-07-11T11:11:35.648Z,3.37
2018-07-11T11:14:03.835Z,2.90
2018-07-11T11:16:32.041Z,3.03
2018-07-11T11:19:00.204Z,2.50
2018-07-11T11:21:28.192Z,2.40
2018-07-11T11:23:56.383Z,2.97
2018-07-11T11:26:24.569Z,2.93
2018-07-11T11:28:52.576Z,3.47
2018-07-11T11:31:20.823Z,3.17
2018-07-11T11:33:49.132Z,3.20
2018-07-11T11:36:17.337Z,3.17
2018-07-11T11:38:45.621Z,2.77
2018-07-11T11:41:13.811Z,3.50
2018-07-11T11:43:42.103Z,4.73
2018-07-11T11:46:10.315Z,2.57
2018-07-11T11:48:38.576Z,2.30
2018-07-11T11:51:06.824Z,2.50
2018-07-11T11:53:35.072Z,4.93
2018-07-11T11:56:03.269Z,2.87
2018-07-11T11:58:31.484Z,2.70
2018-07-11T12:00:59.683Z,2.57
2018-07-11T12:03:27.907Z,3.77
2018-07-11T12:05:56.171Z,3.13
2018-07-11T12:08:24.431Z,2.70
2018-07-11T12:10:52.631Z,2.50
2018-07-11T12:13:20.813Z,4.00
2018-07-11T12:15:49.481Z,3.60
2018-07-11T12:18:17.719Z,2.50
2018-07-11T12:20:45.924Z,2.57
2018-07-11T12:23:13.865Z,2.00
2018-07-11T12:26:20.475Z,4.00
2018-07-11T12:28:48.735Z,3.13
2018-07-11T12:31:16.927Z,8.00
2018-07-11T12:33:45.151Z,2.53
2018-07-11T12:36:13.401Z,3.77
2018-07-11T12:38:41.691Z,2.40
2018-07-11T12:41:09.897Z,2.77
2018-07-11T12:43:38.128Z,2.80
2018-07-11T12:46:06.369Z,3.80
2018-07-11T12:48:40.085Z,2.63
2018-07-11T12:51:08.385Z,2.50
2018-07-11T12:53:36.679Z,2.57
2018-07-11T12:56:05.203Z,3.17
2018-07-11T12:58:33.546Z,2.70
2018-07-11T13:01:01.717Z,4.67
2018-07-11T13:03:29.927Z,3.10
2018-07-11T13:05:58.167Z,2.67
2018-07-11T13:08:26.524Z,2.23
2018-07-11T13:10:54.697Z,5.47
2018-07-11T13:13:22.912Z,3.30
2018-07-11T13:15:50.847Z,2.70
2018-07-11T13:18:19.142Z,2.33
2018-07-11T13:20:47.331Z,2.47
2018-07-11T13:23:15.575Z,4.90
2018-07-11T13:25:43.842Z,3.40
2018-07-11T13:28:12.037Z,2.50
2018-07-11T13:30:40.307Z,3.13
2018-07-11T13:33:08.595Z,4.30
2018-07-11T13:35:36.814Z,3.17
2018-07-11T13:38:05.088Z,2.27
2018-07-11T13:40:33.323Z,9.53
2018-07-11T13:43:01.531Z,2.20
2018-07-11T13:45:29.716Z,4.87
2018-07-11T13:48:00.971Z,4.00
2018-07-11T13:50:29.247Z,4.90
2018-07-11T13:52:58.074Z,3.90
2018-07-11T13:55:26.318Z,2.30
2018-07-11T13:57:54.519Z,2.13
2018-07-11T14:00:22.744Z,2.63
2018-07-11T14:02:51.188Z,2.90
2018-07-11T14:05:19.780Z,3.20
2018-07-11T14:07:48.048Z,2.20
2018-07-11T14:10:16.444Z,4.57
2018-07-11T14:12:45.104Z,4.70
2018-07-11T14:15:13.316Z,4.40
2018-07-11T14:17:41.599Z,3.20
2018-07-11T14:20:10.125Z,3.07
2018-07-11T14:22:38.909Z,3.57
2018-07-11T14:25:07.184Z,3.23
2018-07-11T14:27:41.249Z,3.17
2018-07-11T14:30:09.474Z,2.97
2018-07-11T14:32:41.158Z,3.60
2018-07-11T14:35:09.462Z,4.10
2018-07-11T14:37:38.886Z,4.60
2018-07-11T14:40:07.125Z,3.90
2018-07-11T14:42:38.832Z,8.40
2018-07-11T14:45:07.124Z,3.90
2018-07-11T14:47:55.238Z,2.73
2018-07-11T14:50:24.152Z,4.63
2018-07-11T14:52:55.344Z,3.13
2018-07-11T14:55:23.551Z,11.53
2018-07-11T14:57:51.752Z,2.90
2018-07-11T15:00:19.940Z,8.77
2018-07-11T15:02:48.273Z,4.30
2018-07-11T15:05:16.548Z,3.00
2018-07-11T15:07:44.763Z,4.53
2018-07-11T15:10:13.028Z,4.90
2018-07-11T15:12:41.312Z,4.50
2018-07-11T15:15:09.570Z,4.97
2018-07-11T15:17:37.868Z,3.23
2018-07-11T15:20:06.178Z,4.20
2018-07-11T15:22:34.379Z,4.20
2018-07-11T15:25:02.649Z,2.97
2018-07-11T15:27:30.858Z,6.10
2018-07-11T15:29:59.147Z,3.10
2018-07-11T15:32:27.423Z,3.60
2018-07-11T15:34:55.823Z,6.10
2018-07-11T15:37:24.274Z,3.60
2018-07-11T15:39:53.055Z,6.53
2018-07-11T15:42:21.572Z,5.57
2018-07-11T15:44:51.061Z,5.40
2018-07-11T15:47:21.452Z,5.10
2018-07-11T15:49:50.925Z,4.57
2018-07-11T15:52:20.736Z,6.77
2018-07-11T15:54:49.145Z,4.33
2018-07-11T15:57:20.766Z,6.80
2018-07-11T16:00:01.192Z,4.87
2018-07-11T16:02:30.286Z,3.57
2018-07-11T16:04:58.571Z,3.80
2018-07-11T16:07:28.814Z,5.13
2018-07-11T16:09:59.366Z,3.77
2018-07-11T16:12:27.658Z,4.53
2018-07-11T16:14:56.622Z,5.83
2018-07-11T16:17:24.867Z,3.83
2018-07-11T16:19:53.218Z,4.60
2018-07-11T16:22:21.512Z,5.07
2018-07-11T16:24:49.984Z,3.63
2018-07-11T16:27:19.203Z,3.43
2018-07-11T16:29:47.390Z,5.40
2018-07-11T16:32:15.618Z,3.67
2018-07-11T16:34:44.030Z,4.10
2018-07-11T16:37:12.519Z,4.23
2018-07-11T16:39:40.827Z,3.57
2018-07-11T16:42:09.000Z,3.50
2018-07-11T16:44:37.344Z,5.17
2018-07-11T16:47:07.104Z,4.37
2018-07-11T16:49:39.192Z,4.27
2018-07-11T16:52:07.443Z,5.27
2018-07-11T16:54:35.477Z,2.83
2018-07-11T16:57:04.975Z,3.90
2018-07-11T16:59:45.598Z,4.07
2018-07-11T17:02:16.636Z,3.70
2018-07-11T17:04:44.972Z,4.40
2018-07-11T17:07:18.330Z,4.70
2018-07-11T17:09:48.286Z,5.80
2018-07-11T17:12:17.433Z,3.97
2018-07-11T17:14:46.456Z,4.70
2018-07-11T17:17:17.625Z,4.70
2018-07-11T17:20:19.628Z,3.63
2018-07-11T17:22:52.596Z,2.90
2018-07-11T17:25:21.043Z,3.70
2018-07-11T17:27:52.856Z,3.43
2018-07-11T17:30:21.232Z,6.63
2018-07-11T17:32:49.531Z,2.87
2018-07-11T17:35:17.826Z,3.47
2018-07-11T17:37:46.124Z,3.10
2018-07-11T17:40:14.376Z,4.33
2018-07-11T17:42:44.507Z,3.70
2018-07-11T17:45:14.140Z,3.57
2018-07-11T17:49:57.211Z,3.83
2018-07-11T17:52:26.916Z,3.53
2018-07-11T17:55:15.836Z,5.90
2018-07-11T17:57:50.562Z,4.27
2018-07-11T18:00:32.946Z,4.53
2018-07-11T18:03:18.300Z,5.60
2018-07-11T18:05:55.270Z,3.93
2018-07-11T18:08:29.682Z,6.00
2018-07-11T18:10:58.550Z,3.43
2018-07-11T18:13:29.468Z,5.77
2018-07-11T18:16:03.406Z,5.73
2018-07-11T18:18:39.734Z,4.10
2018-07-11T18:23:25.808Z,3.73
2018-07-11T18:26:00.693Z,3.87
2018-07-11T18:30:44.386Z,4.17
2018-07-11T18:33:25.198Z,3.77
2018-07-11T18:36:01.816Z,5.00
2018-07-11T18:38:40.706Z,4.00
2018-07-11T18:41:13.956Z,4.77
2018-07-11T18:43:53.701Z,3.33
2018-07-11T18:47:33.095Z,4.37
2018-07-11T18:52:28.688Z,5.40
2018-07-11T18:57:09.408Z,3.10
2018-07-11T19:00:00.687Z,4.23
2018-07-11T19:03:39.830Z,3.80
2018-07-11T19:06:29.375Z,4.90
2018-07-11T19:09:10.889Z,4.23
2018-07-11T19:11:52.293Z,4.17
2018-07-11T19:14:35.816Z,4.00
2018-07-11T19:18:10.093Z,5.00
2018-07-11T19:20:43.110Z,3.30
2018-07-11T19:24:26.245Z,4.60
2018-07-11T19:27:00.143Z,6.00
2018-07-11T19:29:52.610Z,5.73
2018-07-11T19:34:32.707Z,4.80
2018-07-11T19:37:05.633Z,3.00
2018-07-11T19:39:41.443Z,4.93
2018-07-11T19:44:20.211Z,3.10
2018-07-11T19:49:03.288Z,4.17
2018-07-11T19:51:42.882Z,7.90
2018-07-11T19:54:17.394Z,3.57
2018-07-11T19:56:47.319Z,7.03
2018-07-11T19:59:15.873Z,3.27
2018-07-11T20:01:44.643Z,7.23
2018-07-11T20:04:13.697Z,6.97
2018-07-11T20:06:42.035Z,7.20
2018-07-11T20:09:10.377Z,6.20
2018-07-11T20:11:38.678Z,3.57
2018-07-11T20:14:06.989Z,5.63
2018-07-11T20:16:35.270Z,4.63
2018-07-11T20:19:03.664Z,5.97
2018-07-11T20:21:31.889Z,4.10
2018-07-11T20:24:00.345Z,3.60
2018-07-11T20:26:28.555Z,4.17
2018-07-11T20:28:57.029Z,3.20
2018-07-11T20:31:25.295Z,4.07
2018-07-11T20:33:53.547Z,5.10
2018-07-11T20:36:21.764Z,4.60
2018-07-11T20:38:49.949Z,5.90
2018-07-11T20:41:17.935Z,3.47
2018-07-11T20:43:46.211Z,2.40
2018-07-11T20:46:14.469Z,3.53
2018-07-11T20:48:42.671Z,5.47
2018-07-11T20:51:10.973Z,2.80
2018-07-11T20:53:39.251Z,5.80
2018-07-11T20:56:07.504Z,3.90
2018-07-11T21:00:42.203Z,3.43
2018-07-11T21:05:23.090Z,3.80
2018-07-11T21:10:08.653Z,2.77
2018-07-11T21:12:46.125Z,2.43
2018-07-11T21:17:28.943Z,2.90
2018-07-11T21:19:57.213Z,2.93
2018-07-11T21:22:25.475Z,4.33
2018-07-11T21:24:53.724Z,6.70
2018-07-11T21:27:21.974Z,3.13
2018-07-11T21:29:49.974Z,4.50
2018-07-11T21:32:18.239Z,3.30
2018-07-11T21:34:46.537Z,5.13
2018-07-11T21:37:14.811Z,8.97
2018-07-11T21:39:43.077Z,5.70
2018-07-11T21:42:11.289Z,7.00
2018-07-11T21:44:39.471Z,5.93
2018-07-11T21:47:07.771Z,5.50
2018-07-11T21:49:36.038Z,5.20
2018-07-11T21:52:04.303Z,3.63
2018-07-11T21:54:32.286Z,3.70
2018-07-11T21:57:00.543Z,3.00
2018-07-11T21:59:28.788Z,5.77
2018-07-11T22:01:57.073Z,10.60
2018-07-11T22:04:25.335Z,3.13
2018-07-11T22:06:53.590Z,4.03
2018-07-11T22:09:21.864Z,5.97
2018-07-11T22:11:50.125Z,5.80
2018-07-11T22:14:18.292Z,7.43
2018-07-11T22:16:46.528Z,4.57
2018-07-11T22:19:14.728Z,10.40
2018-07-11T22:21:41.944Z,3.20
2018-07-11T22:24:09.169Z,3.80
2018-07-11T22:26:36.355Z,7.73
2018-07-11T22:29:03.592Z,4.97
2018-07-11T22:31:30.771Z,3.67
2018-07-11T22:33:57.993Z,4.30
2018-07-11T22:36:25.244Z,3.60
2018-07-11T22:38:52.467Z,4.13
2018-07-11T22:41:19.675Z,6.57
2018-07-11T22:43:46.895Z,7.73
2018-07-11T22:46:14.130Z,4.97
2018-07-11T22:48:41.367Z,5.57
2018-07-11T22:51:08.559Z,8.83
2018-07-11T22:53:35.803Z,6.43
2018-07-11T22:56:03.109Z,6.43
2018-07-11T22:58:30.334Z,3.40
2018-07-11T23:00:57.517Z,3.80
2018-07-11T23:03:24.736Z,4.67
2018-07-11T23:05:51.931Z,5.10
2018-07-11T23:08:19.242Z,3.60
2018-07-11T23:10:46.367Z,4.20
2018-07-11T23:13:13.571Z,6.07
2018-07-11T23:15:40.785Z,3.70
2018-07-11T23:18:08.031Z,6.30
2018-07-11T23:20:35.306Z,5.87
2018-07-11T23:23:02.505Z,9.30
2018-07-11T23:25:29.722Z,4.60
2018-07-11T23:27:56.932Z,4.47
2018-07-11T23:30:24.138Z,7.20
2018-07-11T23:32:51.320Z,4.20
2018-07-11T23:35:18.524Z,5.60
2018-07-11T23:37:45.725Z,5.10
2018-07-11T23:40:12.930Z,3.73
2018-07-11T23:42:40.145Z,5.67
2018-07-11T23:45:07.372Z,4.40
2018-07-11T23:47:34.566Z,9.17
2018-07-11T23:50:01.776Z,5.60
2018-07-11T23:52:29.014Z,6.33
2018-07-11T23:54:56.238Z,5.93
2018-07-11T23:57:23.464Z,7.60
2018-07-11T23:59:50.764Z,6.87
